ENTO/TRF METAR and TAF weather

Enter ICAO airport designator
Station Type Date Time Source
ENTO METAR 2020/11/25 23:20 UTC NOAA

ENTO 252320Z AUTO 25005KT 9999 BKN086/// 07/06 Q1008


Station Type Date Time Source
ENTO Decoded METAR 2020/11/25 23:20 UTC NOAA

Torp, Norway (ENTO) 59-12N 010-16E 88M
Nov 25, 2020 - 06:20 PM EST / 2020.11.25 2320 UTC
Wind: from the WSW (250 degrees) at 6 MPH (5 KT):0
Visibility: greater than 7 mile(s):0
Sky conditions: mostly cloudy
Temperature: 44 F (7 C)
Dew Point: 42 F (6 C)
Relative Humidity: 93%
Pressure (altimeter): 29.77 in. Hg (1008 hPa)
ob: ENTO 252320Z AUTO 25005KT 9999 BKN086/// 07/06 Q1008
cycle: 23

Station Type Date Time Source
ENTO TAF 2020/11/25 18:57 UTC NOAA

TAF ENTO 251700Z 2518/2618 22012KT 9999 SCT040
TEMPO 2518/2519 BKN012
BECMG 2518/2520 32005KT

Example: see airport list